createdAt,value
2019-05-13T00:00:55.383Z,0
2019-05-13T00:02:07.000Z,0
2019-05-13T00:04:31.946Z,0
2019-05-13T00:05:44.000Z,0
2019-05-13T00:08:08.000Z,0
2019-05-13T00:09:20.000Z,0
2019-05-13T00:10:32.931Z,0
2019-05-13T00:11:45.098Z,0
2019-05-13T00:12:57.307Z,0
2019-05-13T00:14:09.548Z,0
2019-05-13T00:16:33.000Z,0
2019-05-13T00:17:46.000Z,0
2019-05-13T00:18:58.000Z,0
2019-05-13T00:20:10.000Z,0
2019-05-13T00:21:22.000Z,0
2019-05-13T00:22:34.825Z,0
2019-05-13T00:23:46.000Z,0
2019-05-13T00:24:59.232Z,0
2019-05-13T00:26:11.412Z,0
2019-05-13T00:28:35.000Z,0
2019-05-13T00:29:47.000Z,0
2019-05-13T00:31:00.000Z,0
2019-05-13T00:32:12.000Z,0
2019-05-13T00:33:24.545Z,0
2019-05-13T00:34:36.734Z,0
2019-05-13T00:35:48.000Z,0
2019-05-13T00:37:01.149Z,0
2019-05-13T00:38:13.000Z,0
2019-05-13T00:39:25.523Z,0
2019-05-13T00:41:49.000Z,0
2019-05-13T00:44:14.000Z,0
2019-05-13T00:45:26.000Z,0
2019-05-13T00:46:38.065Z,0
2019-05-13T00:47:50.845Z,0
2019-05-13T00:49:03.056Z,0
2019-05-13T00:52:39.000Z,0
2019-05-13T00:53:51.000Z,0
2019-05-13T00:55:03.000Z,0
2019-05-13T00:56:16.000Z,0
2019-05-13T00:58:40.056Z,0
2019-05-13T00:59:52.000Z,0
2019-05-13T01:01:04.996Z,0
2019-05-13T01:02:17.000Z,0
2019-05-13T01:04:41.000Z,0
2019-05-13T01:05:53.000Z,0
2019-05-13T01:07:05.000Z,0
2019-05-13T01:08:18.000Z,0
2019-05-13T01:09:30.000Z,0
2019-05-13T01:10:42.506Z,0
2019-05-13T01:11:54.000Z,0
2019-05-13T01:13:06.895Z,0
2019-05-13T01:14:19.000Z,0
2019-05-13T01:16:43.465Z,0
2019-05-13T01:17:55.000Z,0
2019-05-13T01:19:07.000Z,0
2019-05-13T01:20:20.000Z,0
2019-05-13T01:21:32.000Z,0
2019-05-13T01:22:44.435Z,0
2019-05-13T01:23:56.000Z,0
2019-05-13T01:25:08.079Z,0
2019-05-13T01:26:20.991Z,0
2019-05-13T01:28:45.000Z,0
2019-05-13T01:29:57.000Z,0
2019-05-13T01:31:09.767Z,0
2019-05-13T01:32:21.000Z,0
2019-05-13T01:33:34.000Z,0
2019-05-13T01:34:46.314Z,0
2019-05-13T01:35:58.000Z,0
2019-05-13T01:37:10.000Z,0
2019-05-13T01:38:22.893Z,0
2019-05-13T01:40:47.000Z,0
2019-05-13T01:41:59.000Z,0
2019-05-13T01:43:11.000Z,0
2019-05-13T01:44:23.867Z,0
2019-05-13T01:45:36.000Z,0
2019-05-13T01:46:48.238Z,0
2019-05-13T01:48:00.555Z,0
2019-05-13T01:49:13.174Z,0
2019-05-13T01:50:24.000Z,0
2019-05-13T01:52:49.000Z,0
2019-05-13T01:54:01.000Z,0
2019-05-13T01:55:13.000Z,0
2019-05-13T01:56:25.000Z,0
2019-05-13T01:57:37.982Z,0
2019-05-13T01:58:50.147Z,0
2019-05-13T02:00:02.000Z,0
2019-05-13T02:01:14.000Z,0
2019-05-13T02:02:26.830Z,0
2019-05-13T02:04:51.000Z,0
2019-05-13T02:06:03.051Z,0
2019-05-13T02:07:15.000Z,0
2019-05-13T02:08:27.000Z,0
2019-05-13T02:10:52.067Z,0
2019-05-13T02:12:04.000Z,0
2019-05-13T02:13:16.047Z,0
2019-05-13T02:14:28.647Z,0
2019-05-13T02:16:53.037Z,0
2019-05-13T02:18:05.000Z,0
2019-05-13T02:19:17.000Z,0
2019-05-13T02:20:29.000Z,0
2019-05-13T02:21:41.000Z,0
2019-05-13T02:22:54.207Z,0
2019-05-13T02:25:18.400Z,0
2019-05-13T02:26:30.000Z,0
2019-05-13T02:28:54.944Z,0
2019-05-13T02:30:07.000Z,0
2019-05-13T02:31:19.000Z,0
2019-05-13T02:32:31.000Z,0
2019-05-13T02:33:43.000Z,0
2019-05-13T02:34:55.900Z,4
2019-05-13T02:36:08.098Z,4
2019-05-13T02:37:20.315Z,4
2019-05-13T02:38:32.000Z,4
2019-05-13T02:40:56.000Z,4
2019-05-13T02:42:09.000Z,8
2019-05-13T02:43:21.000Z,4
2019-05-13T02:44:33.000Z,8
2019-05-13T02:45:45.000Z,8
2019-05-13T02:46:57.819Z,12
2019-05-13T02:48:10.000Z,12
2019-05-13T02:49:22.223Z,16
2019-05-13T02:50:34.000Z,16
2019-05-13T02:54:10.000Z,24
2019-05-13T02:55:23.221Z,32
2019-05-13T02:56:35.000Z,36
2019-05-13T02:57:47.551Z,40
2019-05-13T02:58:59.758Z,48
2019-05-13T03:00:11.000Z,56
2019-05-13T03:01:24.138Z,64
2019-05-13T03:02:36.332Z,76
2019-05-13T03:05:00.694Z,96
2019-05-13T03:06:12.000Z,108
2019-05-13T03:07:25.000Z,120
2019-05-13T03:08:37.000Z,136
2019-05-13T03:09:49.000Z,152
2019-05-13T03:11:01.658Z,172
2019-05-13T03:12:13.838Z,192
2019-05-13T03:13:26.064Z,208
2019-05-13T03:17:02.000Z,280
2019-05-13T03:18:14.000Z,308
2019-05-13T03:19:26.988Z,336
2019-05-13T03:20:39.000Z,368
2019-05-13T03:21:51.000Z,400
2019-05-13T03:23:03.571Z,436
2019-05-13T03:24:15.000Z,472
2019-05-13T03:25:27.973Z,512
2019-05-13T03:26:40.000Z,548
2019-05-13T03:27:52.424Z,588
2019-05-13T03:29:04.000Z,632
2019-05-13T03:30:16.000Z,672
2019-05-13T03:31:29.017Z,716
2019-05-13T03:32:41.000Z,760
2019-05-13T03:33:53.000Z,804
2019-05-13T03:35:05.506Z,848
2019-05-13T03:36:17.000Z,892
2019-05-13T03:37:29.886Z,932
2019-05-13T03:38:42.000Z,980
2019-05-13T03:41:06.000Z,1072
2019-05-13T03:42:18.000Z,1116
2019-05-13T03:43:30.000Z,1164
2019-05-13T03:44:43.000Z,1208
2019-05-13T03:45:55.000Z,1256
2019-05-13T03:47:07.395Z,1300
2019-05-13T03:48:19.604Z,1344
2019-05-13T03:49:31.802Z,1388
2019-05-13T03:50:44.041Z,1436
2019-05-13T03:53:08.000Z,1528
2019-05-13T03:54:20.000Z,1572
2019-05-13T03:55:32.000Z,1620
2019-05-13T03:56:44.000Z,1664
2019-05-13T03:57:57.000Z,1708
2019-05-13T03:59:09.345Z,1752
2019-05-13T04:00:21.000Z,1800
2019-05-13T04:01:33.711Z,1844
2019-05-13T04:02:45.893Z,1892
2019-05-13T04:05:10.000Z,1976
2019-05-13T04:06:22.000Z,2016
2019-05-13T04:07:34.000Z,2056
2019-05-13T04:08:46.000Z,2096
2019-05-13T04:09:59.042Z,2148
2019-05-13T04:11:11.236Z,2184
2019-05-13T04:12:23.000Z,2224
2019-05-13T04:13:35.063Z,2264
2019-05-13T04:14:47.000Z,2316
2019-05-13T04:16:00.011Z,2356
2019-05-13T04:17:12.189Z,2400
2019-05-13T04:18:24.000Z,2452
2019-05-13T04:19:36.579Z,2484
2019-05-13T04:20:48.000Z,2540
2019-05-13T04:22:00.983Z,2588
2019-05-13T04:23:13.152Z,2736
2019-05-13T04:24:25.000Z,4160
2019-05-13T04:25:37.055Z,5340
2019-05-13T04:26:49.000Z,6964
2019-05-13T04:29:14.000Z,8460
2019-05-13T04:30:26.000Z,8664
2019-05-13T04:31:38.488Z,8376
2019-05-13T04:32:50.000Z,7692
2019-05-13T04:35:15.083Z,7920
2019-05-13T04:36:27.000Z,9324
2019-05-13T04:37:39.000Z,9552
2019-05-13T04:38:51.000Z,9960
2019-05-13T04:41:16.000Z,10584
2019-05-13T04:42:28.000Z,10120
2019-05-13T04:43:40.442Z,10020
2019-05-13T04:44:52.000Z,10200
2019-05-13T04:46:04.000Z,10272
2019-05-13T04:47:17.001Z,10636
2019-05-13T04:48:29.167Z,10912
2019-05-13T04:49:41.000Z,12020
2019-05-13T04:50:53.000Z,12556
2019-05-13T04:53:17.000Z,13488
2019-05-13T04:54:30.000Z,13216
2019-05-13T04:55:42.000Z,12684
2019-05-13T04:56:54.000Z,15104
2019-05-13T04:58:06.727Z,16896
2019-05-13T04:59:18.892Z,16320
2019-05-13T05:00:31.000Z,16032
2019-05-13T05:01:43.000Z,16224
2019-05-13T05:02:55.478Z,16864
2019-05-13T05:05:19.879Z,17824
2019-05-13T05:06:32.000Z,18432
2019-05-13T05:07:44.000Z,18624
2019-05-13T05:08:56.000Z,18400
2019-05-13T05:10:08.701Z,18528
2019-05-13T05:11:20.844Z,18784
2019-05-13T05:12:33.000Z,19712
2019-05-13T05:13:45.221Z,20576
2019-05-13T05:14:57.403Z,20864
2019-05-13T05:18:33.000Z,19936
2019-05-13T05:19:46.000Z,19040
2019-05-13T05:20:58.000Z,20448
2019-05-13T05:22:10.558Z,15712
2019-05-13T05:23:22.760Z,7224
2019-05-13T05:24:34.000Z,4084
2019-05-13T05:25:47.155Z,4040
2019-05-13T05:26:59.000Z,4052
2019-05-13T05:29:23.000Z,4084
2019-05-13T05:30:35.000Z,4180
2019-05-13T05:31:48.000Z,4052
2019-05-13T05:33:00.000Z,4096
2019-05-13T05:34:12.000Z,4112
2019-05-13T05:35:24.681Z,4096
2019-05-13T05:36:36.000Z,4080
2019-05-13T05:37:49.000Z,4112
2019-05-13T05:39:01.000Z,4136
2019-05-13T05:41:25.000Z,4264
2019-05-13T05:42:37.000Z,4324
2019-05-13T05:43:50.046Z,4156
2019-05-13T05:45:02.000Z,4200
2019-05-13T05:46:14.000Z,4228
2019-05-13T05:47:26.061Z,4244
2019-05-13T05:48:38.000Z,4248
2019-05-13T05:49:51.021Z,4224
2019-05-13T05:51:03.000Z,4272
2019-05-13T05:53:27.000Z,4320
2019-05-13T05:54:39.000Z,4316
2019-05-13T05:55:51.000Z,4332
2019-05-13T05:57:04.000Z,4348
2019-05-13T05:58:16.362Z,4464
2019-05-13T05:59:28.572Z,4468
2019-05-13T06:00:40.000Z,4404
2019-05-13T06:01:52.000Z,4384
2019-05-13T06:03:05.000Z,4548
2019-05-13T06:05:29.000Z,4488
2019-05-13T06:06:41.000Z,4512
2019-05-13T06:07:53.915Z,4544
2019-05-13T06:09:06.000Z,4556
2019-05-13T06:10:18.030Z,4636
2019-05-13T06:11:30.489Z,4604
2019-05-13T06:12:42.680Z,4744
2019-05-13T06:13:54.000Z,4632
2019-05-13T06:15:07.135Z,4604
2019-05-13T06:17:31.471Z,4628
2019-05-13T06:18:43.000Z,4696
2019-05-13T06:19:55.000Z,4696
2019-05-13T06:21:08.000Z,4676
2019-05-13T06:22:20.337Z,4684
2019-05-13T06:23:32.042Z,4784
2019-05-13T06:24:44.631Z,4768
2019-05-13T06:25:56.000Z,4832
2019-05-13T06:27:09.026Z,4876
2019-05-13T06:30:45.606Z,4984
2019-05-13T06:31:57.783Z,5096
2019-05-13T06:33:09.000Z,5016
2019-05-13T06:34:22.000Z,5088
2019-05-13T06:35:34.366Z,5064
2019-05-13T06:36:46.000Z,5252
2019-05-13T06:37:58.000Z,5088
2019-05-13T06:39:10.929Z,5204
2019-05-13T06:41:35.000Z,5368
2019-05-13T06:42:47.000Z,5364
2019-05-13T06:43:59.778Z,5364
2019-05-13T06:45:11.000Z,5368
2019-05-13T06:46:24.000Z,1272
2019-05-13T06:47:36.300Z,4528
2019-05-13T06:48:48.004Z,5340
2019-05-13T06:50:00.700Z,5408
2019-05-13T06:51:12.000Z,5496
2019-05-13T06:53:37.000Z,5616
2019-05-13T06:54:49.498Z,5212
2019-05-13T06:56:01.000Z,5496
2019-05-13T06:57:13.890Z,5880
2019-05-13T06:58:26.000Z,6052
2019-05-13T06:59:38.296Z,5956
2019-05-13T07:00:50.491Z,6152
2019-05-13T07:02:02.710Z,6260
2019-05-13T07:03:14.883Z,6304
2019-05-13T07:06:51.494Z,6392
2019-05-13T07:08:03.007Z,6324
2019-05-13T07:09:15.000Z,6316
2019-05-13T07:10:28.008Z,6272
2019-05-13T07:11:40.292Z,6132
2019-05-13T07:12:52.000Z,6152
2019-05-13T07:14:04.701Z,6128
2019-05-13T07:15:16.000Z,6260
2019-05-13T07:17:41.299Z,6308
2019-05-13T07:18:53.649Z,6368
2019-05-13T07:20:05.827Z,6420
2019-05-13T07:21:17.000Z,6452
2019-05-13T07:22:30.000Z,6520
2019-05-13T07:23:42.307Z,6472
2019-05-13T07:24:54.000Z,6504
2019-05-13T07:26:06.817Z,6596
2019-05-13T07:27:18.000Z,6468
2019-05-13T07:29:43.345Z,6300
2019-05-13T07:30:55.051Z,6260
2019-05-13T07:32:07.710Z,6284
2019-05-13T07:33:19.000Z,6244
2019-05-13T07:34:32.000Z,6228
2019-05-13T07:35:44.307Z,6224
2019-05-13T07:36:56.560Z,6236
2019-05-13T07:38:08.709Z,6268
2019-05-13T07:39:20.894Z,6260
2019-05-13T07:41:45.000Z,6280
2019-05-13T07:42:57.512Z,6244
2019-05-13T07:44:09.000Z,6216
2019-05-13T07:45:21.000Z,6208
2019-05-13T07:46:34.128Z,6096
2019-05-13T07:47:46.318Z,5964
2019-05-13T07:48:58.000Z,5852
2019-05-13T07:50:10.706Z,5700
2019-05-13T07:51:22.000Z,5584
2019-05-13T07:53:47.309Z,5396
2019-05-13T07:54:59.521Z,5280
2019-05-13T07:57:23.000Z,5400
2019-05-13T07:58:36.000Z,5368
2019-05-13T07:59:48.309Z,5252
2019-05-13T08:01:00.503Z,5176
2019-05-13T08:02:12.718Z,5300
2019-05-13T08:03:25.033Z,5168
2019-05-13T08:05:49.000Z,5284
2019-05-13T08:07:01.516Z,5340
2019-05-13T08:08:13.000Z,5336
2019-05-13T08:09:25.000Z,5280
2019-05-13T08:11:50.323Z,5208
2019-05-13T08:13:02.000Z,5204
2019-05-13T08:14:14.712Z,5552
2019-05-13T08:15:26.915Z,6028
2019-05-13T08:19:03.566Z,6644
2019-05-13T08:20:15.000Z,6028
2019-05-13T08:21:27.000Z,6096
2019-05-13T08:23:52.317Z,5976
2019-05-13T08:25:04.601Z,5968
2019-05-13T08:26:16.726Z,5720
2019-05-13T08:27:28.000Z,5792
2019-05-13T08:29:53.314Z,6072
2019-05-13T08:31:05.524Z,6044
2019-05-13T08:32:17.819Z,6028
2019-05-13T08:33:29.093Z,6076
2019-05-13T08:34:42.000Z,6256
2019-05-13T08:35:54.331Z,6256
2019-05-13T08:37:06.050Z,6608
2019-05-13T08:38:18.730Z,6860
2019-05-13T08:39:31.060Z,6984
2019-05-13T08:41:55.000Z,7056
2019-05-13T08:43:07.538Z,6828
2019-05-13T08:44:19.718Z,6884
2019-05-13T08:45:31.000Z,7092
2019-05-13T08:47:56.335Z,8344
2019-05-13T08:49:08.000Z,8908
2019-05-13T08:50:20.725Z,9004
2019-05-13T08:51:32.000Z,8720
2019-05-13T08:53:57.000Z,10540
2019-05-13T08:55:09.556Z,10788
2019-05-13T08:56:21.000Z,9656
2019-05-13T08:57:33.000Z,8232
2019-05-13T08:58:46.127Z,9696
2019-05-13T08:59:58.340Z,9724
2019-05-13T09:01:10.000Z,9432
2019-05-13T09:02:22.730Z,9624
2019-05-13T09:03:34.000Z,11536
2019-05-13T09:05:59.328Z,11392
2019-05-13T09:07:11.541Z,12040
2019-05-13T09:08:23.000Z,11140
2019-05-13T09:09:35.000Z,9056
2019-05-13T09:10:48.000Z,8004
2019-05-13T09:12:00.454Z,6480
2019-05-13T09:13:12.517Z,6248
2019-05-13T09:14:24.746Z,6244
2019-05-13T09:15:36.000Z,5804
2019-05-13T09:18:01.000Z,6604
2019-05-13T09:19:13.542Z,8620
2019-05-13T09:20:25.736Z,9700
2019-05-13T09:21:37.000Z,10896
2019-05-13T09:24:02.033Z,12800
2019-05-13T09:25:14.000Z,11668
2019-05-13T09:26:26.751Z,9996
2019-05-13T09:27:38.000Z,9620
2019-05-13T09:30:03.438Z,9352
2019-05-13T09:31:15.541Z,9936
2019-05-13T09:32:27.748Z,9976
2019-05-13T09:33:39.000Z,10692
2019-05-13T09:34:52.153Z,13964
2019-05-13T09:36:04.347Z,16276
2019-05-13T09:37:16.000Z,15636
2019-05-13T09:38:28.744Z,12724
2019-05-13T09:39:40.940Z,11984
2019-05-13T09:42:05.367Z,11944
2019-05-13T09:43:17.605Z,13208
2019-05-13T09:45:41.000Z,15160
2019-05-13T09:46:54.000Z,15648
2019-05-13T09:48:06.359Z,16012
2019-05-13T09:49:18.536Z,16484
2019-05-13T09:50:30.757Z,15700
2019-05-13T09:51:42.000Z,16820
2019-05-13T09:54:07.349Z,13964
2019-05-13T09:55:19.554Z,12008
2019-05-13T09:56:31.741Z,9544
2019-05-13T09:57:43.000Z,8696
2019-05-13T09:58:56.000Z,8460
2019-05-13T10:00:08.352Z,7924
2019-05-13T10:01:20.000Z,7088
2019-05-13T10:02:32.750Z,6956
2019-05-13T10:03:44.000Z,7464
2019-05-13T10:06:09.441Z,9176
2019-05-13T10:07:21.568Z,9848
2019-05-13T10:08:33.000Z,9648
2019-05-13T10:09:45.000Z,9440
2019-05-13T10:10:58.000Z,9732
2019-05-13T10:12:10.366Z,11272
2019-05-13T10:13:22.000Z,10064
2019-05-13T10:14:34.765Z,10000
2019-05-13T10:15:46.969Z,9996
2019-05-13T10:18:11.362Z,10116
2019-05-13T10:19:23.572Z,9992
2019-05-13T10:20:35.082Z,9596
2019-05-13T10:21:47.000Z,9800
2019-05-13T10:23:00.176Z,10596
2019-05-13T10:24:12.387Z,11832
2019-05-13T10:25:24.561Z,13192
2019-05-13T10:26:36.886Z,14060
2019-05-13T10:27:48.000Z,14164
2019-05-13T10:30:13.000Z,12672
2019-05-13T10:31:25.064Z,10988
2019-05-13T10:32:37.000Z,9760
2019-05-13T10:33:49.000Z,7716
2019-05-13T10:35:02.000Z,6860
2019-05-13T10:36:14.036Z,6244
2019-05-13T10:37:26.568Z,7196
2019-05-13T10:38:38.769Z,7860
2019-05-13T10:39:50.099Z,8500
2019-05-13T10:42:15.000Z,9996
2019-05-13T10:43:27.584Z,10468
2019-05-13T10:44:39.000Z,9996
2019-05-13T10:45:51.000Z,11720
2019-05-13T10:47:04.164Z,14216
2019-05-13T10:48:16.384Z,14540
2019-05-13T10:49:28.000Z,13080
2019-05-13T10:50:40.778Z,10960
2019-05-13T10:51:52.000Z,9980
2019-05-13T10:54:17.000Z,11224
2019-05-13T10:55:29.620Z,10412
2019-05-13T10:57:53.000Z,9844
2019-05-13T10:59:06.000Z,10692
2019-05-13T11:00:18.393Z,10712
2019-05-13T11:01:30.570Z,10508
2019-05-13T11:02:42.809Z,10296
2019-05-13T11:03:54.000Z,11176
2019-05-13T11:06:19.376Z,13380
2019-05-13T11:07:31.587Z,13244
2019-05-13T11:08:43.765Z,12832
2019-05-13T11:09:55.000Z,12700
2019-05-13T11:11:08.000Z,13752
2019-05-13T11:12:20.381Z,17100
2019-05-13T11:13:32.000Z,15752
2019-05-13T11:14:44.798Z,16320
2019-05-13T11:15:56.000Z,17856
2019-05-13T11:18:21.391Z,17632
2019-05-13T11:19:33.588Z,16452
2019-05-13T11:20:45.000Z,15684
2019-05-13T11:21:57.000Z,16440
2019-05-13T11:23:10.172Z,16392
2019-05-13T11:24:22.398Z,17096
2019-05-13T11:25:34.000Z,17228
2019-05-13T11:26:46.800Z,16840
2019-05-13T11:27:58.000Z,17008
2019-05-13T11:30:23.380Z,14276
2019-05-13T11:31:35.601Z,12308
2019-05-13T11:32:47.890Z,10640
2019-05-13T11:33:59.000Z,9932
2019-05-13T11:35:12.000Z,9304
2019-05-13T11:36:24.405Z,8944
2019-05-13T11:37:36.594Z,9928
2019-05-13T11:38:48.799Z,9412
2019-05-13T11:40:00.000Z,8364
2019-05-13T11:42:25.000Z,6804
2019-05-13T11:43:37.607Z,6580
2019-05-13T11:44:49.000Z,6460
2019-05-13T11:46:01.000Z,6220
2019-05-13T11:47:14.277Z,5896
2019-05-13T11:48:26.000Z,5768
2019-05-13T11:49:38.589Z,5576
2019-05-13T11:50:50.804Z,5528
2019-05-13T11:52:02.985Z,5496
2019-05-13T11:54:27.000Z,5472
2019-05-13T11:55:39.606Z,5508
2019-05-13T11:56:51.000Z,5560
2019-05-13T11:58:03.000Z,5616
2019-05-13T11:59:16.000Z,5764
2019-05-13T12:00:28.419Z,6148
2019-05-13T12:01:40.708Z,7060
2019-05-13T12:02:52.095Z,8324
2019-05-13T12:04:05.113Z,9984
2019-05-13T12:06:29.401Z,14824
2019-05-13T12:07:41.618Z,13972
2019-05-13T12:08:53.092Z,11628
2019-05-13T12:10:05.000Z,11292
2019-05-13T12:11:18.000Z,9572
2019-05-13T12:12:30.425Z,9208
2019-05-13T12:13:42.000Z,7060
2019-05-13T12:14:54.000Z,7100
2019-05-13T12:16:07.106Z,7872
2019-05-13T12:18:31.000Z,8864
2019-05-13T12:20:55.000Z,9332
2019-05-13T12:22:08.000Z,11740
2019-05-13T12:23:20.000Z,14840
2019-05-13T12:24:32.422Z,17888
2019-05-13T12:25:44.000Z,19424
2019-05-13T12:26:56.831Z,19136
2019-05-13T12:28:08.000Z,18080
2019-05-13T12:30:33.000Z,12980
2019-05-13T12:31:45.630Z,10828
2019-05-13T12:32:57.000Z,9964
2019-05-13T12:34:10.000Z,10360
2019-05-13T12:35:22.215Z,11596
2019-05-13T12:36:34.043Z,12952
2019-05-13T12:37:46.642Z,14008
2019-05-13T12:38:58.008Z,12208
2019-05-13T12:40:11.000Z,9436
2019-05-13T12:42:35.444Z,4864
2019-05-13T12:43:47.062Z,4900
2019-05-13T12:44:59.949Z,5196
2019-05-13T12:46:12.000Z,6016
2019-05-13T12:47:24.000Z,5956
2019-05-13T12:48:36.446Z,5084
2019-05-13T12:49:48.000Z,5960
2019-05-13T12:51:00.000Z,6584
2019-05-13T12:52:13.000Z,7088
2019-05-13T12:54:37.000Z,9288
2019-05-13T12:55:49.658Z,11012
2019-05-13T12:57:01.000Z,13372
2019-05-13T12:58:14.000Z,14964
2019-05-13T12:59:26.322Z,15080
2019-05-13T13:00:38.449Z,15296
2019-05-13T13:01:50.000Z,15160
2019-05-13T13:03:02.837Z,14984
2019-05-13T13:04:15.036Z,15088
2019-05-13T13:07:51.767Z,14308
2019-05-13T13:09:03.083Z,14408
2019-05-13T13:11:28.231Z,13816
2019-05-13T13:12:40.454Z,13180
2019-05-13T13:15:04.085Z,10700
2019-05-13T13:16:17.000Z,9356
2019-05-13T13:18:41.043Z,9696
2019-05-13T13:19:53.640Z,10252
2019-05-13T13:21:05.937Z,9856
2019-05-13T13:22:18.000Z,10124
2019-05-13T13:23:30.000Z,9936
2019-05-13T13:24:42.435Z,9196
2019-05-13T13:25:54.655Z,9352
2019-05-13T13:27:06.862Z,10156
2019-05-13T13:28:19.134Z,11136
2019-05-13T13:30:43.000Z,13844
2019-05-13T13:31:55.662Z,15108
2019-05-13T13:33:07.851Z,16492
2019-05-13T13:34:20.000Z,16360
2019-05-13T13:35:32.306Z,14716
2019-05-13T13:36:44.458Z,12812
2019-05-13T13:37:56.000Z,11560
2019-05-13T13:39:08.863Z,9900
2019-05-13T13:40:21.000Z,8460
2019-05-13T13:42:45.000Z,6992
2019-05-13T13:43:57.670Z,5868
2019-05-13T13:45:09.000Z,5488
2019-05-13T13:46:22.000Z,5328
2019-05-13T13:47:34.255Z,5384
2019-05-13T13:48:46.049Z,5984
2019-05-13T13:49:58.728Z,6792
2019-05-13T13:51:10.857Z,7704
2019-05-13T13:52:23.182Z,8636
2019-05-13T13:54:47.456Z,10336
2019-05-13T13:55:59.682Z,10212
2019-05-13T13:57:11.931Z,9348
2019-05-13T13:58:24.000Z,8452
2019-05-13T13:59:36.000Z,8064
2019-05-13T14:00:48.465Z,7860
2019-05-13T14:02:00.000Z,8028
2019-05-13T14:03:12.866Z,8324
2019-05-13T14:06:49.000Z,10552
2019-05-13T14:08:01.680Z,10960
2019-05-13T14:09:13.887Z,11516
2019-05-13T14:10:26.000Z,11980
2019-05-13T14:11:38.000Z,12012
2019-05-13T14:12:50.478Z,12512
2019-05-13T14:14:02.000Z,13372
2019-05-13T14:15:14.887Z,14364
2019-05-13T14:16:27.072Z,15352
2019-05-13T14:18:51.000Z,12752
2019-05-13T14:20:03.675Z,11984
2019-05-13T14:21:15.000Z,10268
2019-05-13T14:22:28.000Z,9532
2019-05-13T14:23:40.266Z,8936
2019-05-13T14:24:52.481Z,8616
2019-05-13T14:26:04.074Z,8504
2019-05-13T14:27:16.891Z,8616
2019-05-13T14:28:29.000Z,8444
2019-05-13T14:30:53.000Z,7552
2019-05-13T14:32:05.681Z,7296
2019-05-13T14:33:17.099Z,7348
2019-05-13T14:34:30.000Z,7484
2019-05-13T14:35:42.000Z,7740
2019-05-13T14:36:54.517Z,7908
2019-05-13T14:38:06.000Z,7856
2019-05-13T14:39:18.087Z,7848
2019-05-13T14:40:31.000Z,8032
2019-05-13T14:42:55.000Z,7716
2019-05-13T14:44:07.741Z,7428
2019-05-13T14:45:19.865Z,7556
2019-05-13T14:46:32.000Z,8004
2019-05-13T14:47:44.000Z,9068
2019-05-13T14:48:56.463Z,10160
2019-05-13T14:50:08.681Z,11356
2019-05-13T14:51:20.089Z,12028
2019-05-13T14:52:33.000Z,12004
2019-05-13T14:54:57.000Z,12548
2019-05-13T14:56:09.652Z,11940
2019-05-13T14:57:21.000Z,10944
2019-05-13T14:58:34.000Z,9680
2019-05-13T14:59:46.254Z,8868
2019-05-13T15:00:58.447Z,8480
2019-05-13T15:02:10.000Z,7036
2019-05-13T15:03:22.838Z,5524
2019-05-13T15:04:35.037Z,5016
2019-05-13T15:06:59.423Z,4396
2019-05-13T15:08:11.634Z,4220
2019-05-13T15:10:36.000Z,4228
2019-05-13T15:11:48.000Z,4428
2019-05-13T15:13:00.426Z,4688
2019-05-13T15:14:12.000Z,5072
2019-05-13T15:15:24.082Z,5152
2019-05-13T15:16:37.000Z,5204
2019-05-13T15:19:01.425Z,5496
2019-05-13T15:20:13.619Z,5440
2019-05-13T15:21:25.081Z,5516
2019-05-13T15:22:38.000Z,5688
2019-05-13T15:25:02.416Z,7488
2019-05-13T15:26:14.061Z,8812
2019-05-13T15:27:26.808Z,9896
2019-05-13T15:28:38.999Z,10712
2019-05-13T15:31:03.472Z,10592
2019-05-13T15:32:15.755Z,9476
2019-05-13T15:33:27.808Z,8236
2019-05-13T15:34:39.000Z,7680
2019-05-13T15:35:52.187Z,7348
2019-05-13T15:37:04.417Z,6916
2019-05-13T15:38:16.000Z,6396
2019-05-13T15:39:28.801Z,5968
2019-05-13T15:40:41.000Z,5544
2019-05-13T15:43:05.000Z,5108
2019-05-13T15:44:17.608Z,4844
2019-05-13T15:45:29.000Z,4804
2019-05-13T15:46:41.000Z,4668
2019-05-13T15:47:54.000Z,4616
2019-05-13T15:49:06.397Z,5048
2019-05-13T15:50:18.000Z,5920
2019-05-13T15:51:30.811Z,7032
2019-05-13T15:52:43.084Z,8080
2019-05-13T15:55:07.382Z,8484
2019-05-13T15:56:19.654Z,8056
2019-05-13T15:57:31.789Z,7644
2019-05-13T15:58:43.000Z,7936
2019-05-13T16:01:08.355Z,8912
2019-05-13T16:02:20.000Z,8192
2019-05-13T16:03:32.780Z,7720
2019-05-13T16:04:44.952Z,6868
2019-05-13T16:07:09.000Z,5320
2019-05-13T16:08:21.571Z,5032
2019-05-13T16:09:33.763Z,4216
2019-05-13T16:10:45.000Z,2640
2019-05-13T16:11:58.163Z,2488
2019-05-13T16:13:10.359Z,2368
2019-05-13T16:14:22.000Z,2396
2019-05-13T16:15:34.756Z,7532
2019-05-13T16:16:46.000Z,1848
2019-05-13T16:19:11.000Z,1744
2019-05-13T16:20:23.545Z,1832
2019-05-13T16:22:47.000Z,18176
2019-05-13T16:24:00.142Z,12072
2019-05-13T16:25:12.335Z,3804
2019-05-13T16:26:24.529Z,11564
2019-05-13T16:27:36.751Z,7376
2019-05-13T16:28:48.099Z,3720
2019-05-13T16:31:13.000Z,4836
2019-05-13T16:32:25.705Z,5588
2019-05-13T16:33:37.074Z,6052
2019-05-13T16:34:49.000Z,5772
2019-05-13T16:36:02.000Z,5312
2019-05-13T16:37:14.337Z,4988
2019-05-13T16:38:26.000Z,4668
2019-05-13T16:39:38.741Z,4636
2019-05-13T16:40:50.933Z,11488
2019-05-13T16:43:15.000Z,7928
2019-05-13T16:44:27.536Z,3220
2019-05-13T16:45:39.000Z,2756
2019-05-13T16:46:51.000Z,2772
2019-05-13T16:48:04.000Z,2876
2019-05-13T16:49:16.312Z,3012
2019-05-13T16:50:28.000Z,3092
2019-05-13T16:51:40.720Z,3056
2019-05-13T16:52:52.000Z,2880
2019-05-13T16:55:17.295Z,2360
2019-05-13T16:56:29.517Z,2180
2019-05-13T16:57:41.000Z,2108
2019-05-13T16:58:53.888Z,2232
2019-05-13T17:00:06.000Z,2480
2019-05-13T17:01:18.331Z,2848
2019-05-13T17:02:30.509Z,3220
2019-05-13T17:03:42.694Z,3524
2019-05-13T17:04:54.981Z,3716
2019-05-13T17:07:19.000Z,3592
2019-05-13T17:08:31.501Z,3324
2019-05-13T17:09:43.000Z,3304
2019-05-13T17:10:55.000Z,3500
2019-05-13T17:12:08.000Z,3480
2019-05-13T17:13:20.299Z,3352
2019-05-13T17:14:32.000Z,3292
2019-05-13T17:15:44.000Z,3148
2019-05-13T17:20:33.048Z,3052
2019-05-13T17:21:45.000Z,3008
2019-05-13T17:22:57.000Z,2900
2019-05-13T17:24:10.061Z,3016
2019-05-13T17:25:22.284Z,3320
2019-05-13T17:26:34.000Z,3704
2019-05-13T17:27:46.672Z,3832
2019-05-13T17:28:58.000Z,3404
2019-05-13T17:31:23.000Z,3456
2019-05-13T17:32:35.513Z,3596
2019-05-13T17:33:47.000Z,3708
2019-05-13T17:34:59.000Z,3732
2019-05-13T17:36:12.079Z,3872
2019-05-13T17:37:24.256Z,4104
2019-05-13T17:38:36.440Z,4392
2019-05-13T17:39:48.708Z,4696
2019-05-13T17:41:00.933Z,4824
2019-05-13T17:43:25.000Z,4540
2019-05-13T17:44:37.468Z,4200
2019-05-13T17:45:49.646Z,3912
2019-05-13T17:47:01.000Z,3432
2019-05-13T17:48:14.000Z,3076
2019-05-13T17:49:26.240Z,2808
2019-05-13T17:50:38.000Z,2628
2019-05-13T17:51:50.642Z,2684
2019-05-13T17:53:02.825Z,2900
2019-05-13T17:55:27.000Z,3556
2019-05-13T17:56:39.438Z,3600
2019-05-13T17:57:51.000Z,3352
2019-05-13T17:59:03.815Z,3240
2019-05-13T18:00:16.000Z,3236
2019-05-13T18:01:28.226Z,3168
2019-05-13T18:02:40.000Z,3124
2019-05-13T18:03:52.623Z,2996
2019-05-13T18:07:29.204Z,2220
2019-05-13T18:08:41.435Z,2012
2019-05-13T18:09:53.000Z,1940
2019-05-13T18:11:05.000Z,1916
2019-05-13T18:12:17.000Z,1860
2019-05-13T18:13:30.251Z,1796
2019-05-13T18:14:42.457Z,1752
2019-05-13T18:15:54.061Z,1712
2019-05-13T18:17:06.000Z,1624
2019-05-13T18:19:31.213Z,1384
2019-05-13T18:20:43.418Z,1272
2019-05-13T18:21:55.604Z,1188
2019-05-13T18:23:07.000Z,1112
2019-05-13T18:24:19.000Z,1076
2019-05-13T18:25:32.236Z,1040
2019-05-13T18:26:44.000Z,1040
2019-05-13T18:27:56.594Z,1044
2019-05-13T18:29:08.800Z,1032
2019-05-13T18:32:45.455Z,852
2019-05-13T18:33:57.586Z,796
2019-05-13T18:35:09.000Z,748
2019-05-13T18:36:21.979Z,708
2019-05-13T18:37:34.189Z,660
2019-05-13T18:38:46.000Z,612
2019-05-13T18:39:58.600Z,564